Dragocidental — CSYN4 — position and weather

sailwx.info

Track history (hours):
 
Tides and Currents Weather Stations Pressure Air Temp Water Temp Dewpoint Dewpoint Depression Visibility Wind Speed Wind Dir Waves Ship Positions

Dragocidental

Last reported at 2016-Sep-25 00:31 UTC. Time now 2016-Sep-25 02:05 UTC.
Position N 37°44' W 025°40'.

Length 30 m.

Type: Dredging. MMSI: 204671360.

Date/timePositionNaut miles runAvg speedWind from/ knotsBaromVisibWave heightAir tempDewpointWater temp
2016-Sep-25 00:31N 37°44' W 025°40'0 0.0
2016-Sep-24 22:31N 37°44' W 025°40'0 0.0
2016-Sep-24 21:31N 37°44' W 025°40'0 0.0
2016-Sep-24 19:31N 37°44' W 025°40'0 0.0
2016-Sep-24 18:31N 37°44' W 025°40'0 0.0
2016-Sep-24 17:31N 37°44' W 025°40'0 0.0
2016-Sep-24 16:31N 37°44' W 025°40'0 0.0
2016-Sep-24 14:31N 37°44' W 025°40'0 0.0
2016-Sep-24 12:31N 37°44' W 025°40'0 0.0
2016-Sep-24 10:31N 37°44' W 025°40'0 0.0
2016-Sep-24 09:31N 37°44' W 025°40'0 0.0
2016-Sep-24 03:32N 37°44' W 025°40'0 0.0
2016-Sep-24 02:32N 37°44' W 025°40'0 0.0
2016-Sep-24 01:31N 37°44' W 025°40'0 0.0
2016-Sep-24 00:32N 37°44' W 025°40'0 0.0
2016-Sep-23 19:31N 37°44' W 025°40'0 0.0
2016-Sep-23 17:31N 37°44' W 025°40'0 0.0
2016-Sep-23 16:31N 37°44' W 025°40'0 0.0
2016-Sep-23 15:31N 37°44' W 025°40'0 0.0
2016-Sep-23 13:32N 37°44' W 025°40'0 0.0
2016-Sep-23 09:31N 37°44' W 025°40'0 0.0
2016-Sep-23 06:32N 37°44' W 025°40'0 0.0
2016-Sep-23 04:32N 37°44' W 025°40'0 0.0
2016-Sep-23 03:32N 37°44' W 025°40'0 0.0
2016-Sep-23 02:25N 37°44' W 025°40'0 0.0
2016-Sep-23 01:32N 37°44' W 025°40'0 0.0
2016-Sep-23 00:31N 37°44' W 025°40'0 0.0
2016-Sep-22 23:31N 37°44' W 025°40'0 0.0
2016-Sep-22 20:32N 37°44' W 025°40'0 0.0
2016-Sep-22 12:32N 37°44' W 025°40'0 0.0
2016-Sep-22 04:32N 37°44' W 025°40'0 0.0
2016-Sep-22 03:32N 37°44' W 025°40'0 0.0
2016-Sep-22 00:32N 37°44' W 025°40'0 0.0
2016-Sep-21 23:32N 37°44' W 025°40'0 0.0
2016-Sep-21 22:32N 37°44' W 025°40'0 0.0
2016-Sep-21 19:32N 37°44' W 025°40'0 0.0
2016-Sep-21 16:32N 37°44' W 025°40'0 0.0
2016-Sep-21 09:32N 37°44' W 025°40'0 0.0
2016-Sep-21 08:32N 37°44' W 025°40'0 0.0
2016-Sep-21 05:32N 37°44' W 025°40'0 0.0
2016-Sep-21 03:32N 37°44' W 025°40'0 0.0
2016-Sep-21 02:32N 37°44' W 025°40'0 0.0
2016-Sep-20 17:32N 37°44' W 025°40'0 0.0
2016-Sep-20 14:32N 37°44' W 025°40'0 0.0
2016-Sep-20 13:32N 37°44' W 025°40'0 0.0
2016-Sep-20 10:32N 37°44' W 025°40'0 0.0
2016-Sep-20 08:32N 37°44' W 025°40'0 0.0
2016-Sep-20 07:32N 37°44' W 025°40'0 0.0
2016-Sep-20 06:32N 37°44' W 025°40'0 0.0
2016-Sep-20 02:32N 37°44' W 025°40'0 0.0
2016-Sep-19 23:32N 37°44' W 025°40'0 0.0
2016-Sep-19 19:32N 37°44' W 025°40'0 0.0
2016-Sep-19 18:32N 37°44' W 025°40'0 0.0
2016-Sep-19 16:29N 37°44' W 025°40'2 1.0
2016-Sep-19 14:33N 37°44' W 025°42'5 5.3
2016-Sep-19 13:32N 37°48' W 025°47'0 0.0
2016-Sep-19 12:23N 37°48' W 025°47'3 4.2
2016-Sep-19 11:34N 37°45' W 025°44'4 1.9
2016-Sep-19 09:32N 37°44' W 025°40'0 0.0
2016-Sep-19 07:32N 37°44' W 025°40'0 0.0
2016-Sep-19 06:32N 37°44' W 025°40'0 0.0
2016-Sep-19 03:32N 37°44' W 025°40'0 0.0
2016-Sep-19 02:32N 37°44' W 025°40'0 0.0
2016-Sep-19 00:32N 37°44' W 025°40'0 0.0
2016-Sep-18 19:32N 37°44' W 025°40'0 0.0
2016-Sep-18 15:32N 37°44' W 025°40'0 0.0
2016-Sep-18 14:32N 37°44' W 025°40'0 0.0
2016-Sep-18 10:32N 37°44' W 025°40'0 0.0
2016-Sep-18 09:32N 37°44' W 025°40'0 0.0
2016-Sep-18 02:32N 37°44' W 025°40'0 0.0
2016-Sep-18 01:32N 37°44' W 025°40'0 0.0
2016-Sep-18 00:32N 37°44' W 025°40'0 0.0
2016-Sep-17 22:32N 37°44' W 025°40'0 0.0
2016-Sep-17 21:32N 37°44' W 025°40'0 0.0
2016-Sep-17 20:32N 37°44' W 025°40'0 0.0
2016-Sep-17 19:14N 37°44' W 025°40'0 0.0
2016-Sep-17 13:32N 37°44' W 025°40'0 0.0
2016-Sep-17 12:32N 37°44' W 025°40'0 0.0
2016-Sep-17 10:32N 37°44' W 025°40'0 0.0
2016-Sep-17 09:32N 37°44' W 025°40'0 0.0
2016-Sep-17 08:32N 37°44' W 025°40'0 0.0
2016-Sep-17 07:32N 37°44' W 025°40'0 0.0
2016-Sep-17 05:32N 37°44' W 025°40'0 0.0
2016-Sep-17 04:32N 37°44' W 025°40'0 0.0
2016-Sep-17 00:32N 37°44' W 025°40'0 0.0
2016-Sep-16 17:32N 37°44' W 025°40'1 0.5
2016-Sep-16 15:33N 37°44' W 025°41'6 2.1
2016-Sep-16 12:31N 37°48' W 025°47'7 2.3
2016-Sep-16 09:33N 37°44' W 025°40'0 0.0
2016-Sep-16 07:33N 37°44' W 025°40'0 0.0
2016-Sep-16 03:33N 37°44' W 025°40'0 0.0
2016-Sep-16 02:33N 37°44' W 025°40'0 0.0
2016-Sep-16 00:33N 37°44' W 025°40'0 0.0
2016-Sep-15 22:33N 37°44' W 025°40'0 0.0
2016-Sep-15 21:33N 37°44' W 025°40'0 0.0
2016-Sep-15 20:33N 37°44' W 025°40'0 0.0
2016-Sep-15 18:33N 37°44' W 025°40'7 1.2
2016-Sep-15 12:32N 37°48' W 025°47'4 4.2
2016-Sep-15 11:34N 37°45' W 025°44'3 0.5
2016-Sep-15 04:33N 37°44' W 025°40'0 0.0
2016-Sep-15 03:33N 37°44' W 025°40'0 0.0
2016-Sep-15 01:33N 37°44' W 025°40'  
Track history (hours):
 
Tides and Currents Weather Stations Pressure Air Temp Water Temp Dewpoint Dewpoint Depression Visibility Wind Speed Wind Dir Waves Ship Positions

Dragocidental

Last reported at 2016-Sep-25 00:31 UTC. Time now 2016-Sep-25 02:05 UTC.
Position N 37°44' W 025°40'.

Length 30 m.

Type: Dredging. MMSI: 204671360.

Date/timePositionNaut miles runAvg speedWind from/ knotsBaromVisibWave heightAir tempDewpointWater temp
2016-Sep-25 00:31N 37°44' W 025°40'0 0.0
2016-Sep-24 22:31N 37°44' W 025°40'0 0.0
2016-Sep-24 21:31N 37°44' W 025°40'0 0.0
2016-Sep-24 19:31N 37°44' W 025°40'0 0.0
2016-Sep-24 18:31N 37°44' W 025°40'0 0.0
2016-Sep-24 17:31N 37°44' W 025°40'0 0.0
2016-Sep-24 16:31N 37°44' W 025°40'0 0.0
2016-Sep-24 14:31N 37°44' W 025°40'0 0.0
2016-Sep-24 12:31N 37°44' W 025°40'0 0.0
2016-Sep-24 10:31N 37°44' W 025°40'0 0.0
2016-Sep-24 09:31N 37°44' W 025°40'0 0.0
2016-Sep-24 03:32N 37°44' W 025°40'0 0.0
2016-Sep-24 02:32N 37°44' W 025°40'0 0.0
2016-Sep-24 01:31N 37°44' W 025°40'0 0.0
2016-Sep-24 00:32N 37°44' W 025°40'0 0.0
2016-Sep-23 19:31N 37°44' W 025°40'0 0.0
2016-Sep-23 17:31N 37°44' W 025°40'0 0.0
2016-Sep-23 16:31N 37°44' W 025°40'0 0.0
2016-Sep-23 15:31N 37°44' W 025°40'0 0.0
2016-Sep-23 13:32N 37°44' W 025°40'0 0.0
2016-Sep-23 09:31N 37°44' W 025°40'0 0.0
2016-Sep-23 06:32N 37°44' W 025°40'0 0.0
2016-Sep-23 04:32N 37°44' W 025°40'0 0.0
2016-Sep-23 03:32N 37°44' W 025°40'0 0.0
2016-Sep-23 02:25N 37°44' W 025°40'0 0.0
2016-Sep-23 01:32N 37°44' W 025°40'0 0.0
2016-Sep-23 00:31N 37°44' W 025°40'0 0.0
2016-Sep-22 23:31N 37°44' W 025°40'0 0.0
2016-Sep-22 20:32N 37°44' W 025°40'0 0.0
2016-Sep-22 12:32N 37°44' W 025°40'0 0.0
2016-Sep-22 04:32N 37°44' W 025°40'0 0.0
2016-Sep-22 03:32N 37°44' W 025°40'0 0.0
2016-Sep-22 00:32N 37°44' W 025°40'0 0.0
2016-Sep-21 23:32N 37°44' W 025°40'0 0.0
2016-Sep-21 22:32N 37°44' W 025°40'0 0.0
2016-Sep-21 19:32N 37°44' W 025°40'0 0.0
2016-Sep-21 16:32N 37°44' W 025°40'0 0.0
2016-Sep-21 09:32N 37°44' W 025°40'0 0.0
2016-Sep-21 08:32N 37°44' W 025°40'0 0.0
2016-Sep-21 05:32N 37°44' W 025°40'0 0.0
2016-Sep-21 03:32N 37°44' W 025°40'0 0.0
2016-Sep-21 02:32N 37°44' W 025°40'0 0.0
2016-Sep-20 17:32N 37°44' W 025°40'0 0.0
2016-Sep-20 14:32N 37°44' W 025°40'0 0.0
2016-Sep-20 13:32N 37°44' W 025°40'0 0.0
2016-Sep-20 10:32N 37°44' W 025°40'0 0.0
2016-Sep-20 08:32N 37°44' W 025°40'0 0.0
2016-Sep-20 07:32N 37°44' W 025°40'0 0.0
2016-Sep-20 06:32N 37°44' W 025°40'0 0.0
2016-Sep-20 02:32N 37°44' W 025°40'0 0.0
2016-Sep-19 23:32N 37°44' W 025°40'0 0.0
2016-Sep-19 19:32N 37°44' W 025°40'0 0.0
2016-Sep-19 18:32N 37°44' W 025°40'0 0.0
2016-Sep-19 16:29N 37°44' W 025°40'2 1.0
2016-Sep-19 14:33N 37°44' W 025°42'5 5.3
2016-Sep-19 13:32N 37°48' W 025°47'0 0.0
2016-Sep-19 12:23N 37°48' W 025°47'3 4.2
2016-Sep-19 11:34N 37°45' W 025°44'4 1.9
2016-Sep-19 09:32N 37°44' W 025°40'0 0.0
2016-Sep-19 07:32N 37°44' W 025°40'0 0.0
2016-Sep-19 06:32N 37°44' W 025°40'0 0.0
2016-Sep-19 03:32N 37°44' W 025°40'0 0.0
2016-Sep-19 02:32N 37°44' W 025°40'0 0.0
2016-Sep-19 00:32N 37°44' W 025°40'0 0.0
2016-Sep-18 19:32N 37°44' W 025°40'0 0.0
2016-Sep-18 15:32N 37°44' W 025°40'0 0.0
2016-Sep-18 14:32N 37°44' W 025°40'0 0.0
2016-Sep-18 10:32N 37°44' W 025°40'0 0.0
2016-Sep-18 09:32N 37°44' W 025°40'0 0.0
2016-Sep-18 02:32N 37°44' W 025°40'0 0.0
2016-Sep-18 01:32N 37°44' W 025°40'0 0.0
2016-Sep-18 00:32N 37°44' W 025°40'0 0.0
2016-Sep-17 22:32N 37°44' W 025°40'0 0.0
2016-Sep-17 21:32N 37°44' W 025°40'0 0.0
2016-Sep-17 20:32N 37°44' W 025°40'0 0.0
2016-Sep-17 19:14N 37°44' W 025°40'0 0.0
2016-Sep-17 13:32N 37°44' W 025°40'0 0.0
2016-Sep-17 12:32N 37°44' W 025°40'0 0.0
2016-Sep-17 10:32N 37°44' W 025°40'0 0.0
2016-Sep-17 09:32N 37°44' W 025°40'0 0.0
2016-Sep-17 08:32N 37°44' W 025°40'0 0.0
2016-Sep-17 07:32N 37°44' W 025°40'0 0.0
2016-Sep-17 05:32N 37°44' W 025°40'0 0.0
2016-Sep-17 04:32N 37°44' W 025°40'0 0.0
2016-Sep-17 00:32N 37°44' W 025°40'0 0.0
2016-Sep-16 17:32N 37°44' W 025°40'1 0.5
2016-Sep-16 15:33N 37°44' W 025°41'6 2.1
2016-Sep-16 12:31N 37°48' W 025°47'7 2.3
2016-Sep-16 09:33N 37°44' W 025°40'0 0.0
2016-Sep-16 07:33N 37°44' W 025°40'0 0.0
2016-Sep-16 03:33N 37°44' W 025°40'0 0.0
2016-Sep-16 02:33N 37°44' W 025°40'0 0.0
2016-Sep-16 00:33N 37°44' W 025°40'0 0.0
2016-Sep-15 22:33N 37°44' W 025°40'0 0.0
2016-Sep-15 21:33N 37°44' W 025°40'0 0.0
2016-Sep-15 20:33N 37°44' W 025°40'0 0.0
2016-Sep-15 18:33N 37°44' W 025°40'7 1.2
2016-Sep-15 12:32N 37°48' W 025°47'4 4.2
2016-Sep-15 11:34N 37°45' W 025°44'3 0.5
2016-Sep-15 04:33N 37°44' W 025°40'0 0.0
2016-Sep-15 03:33N 37°44' W 025°40'0 0.0
2016-Sep-15 01:33N 37°44' W 025°40'  

Dump ship's entire track history